createdAt,value
2017-09-10T00:00:13.707Z,29.90
2017-09-10T00:01:13.680Z,30.10
2017-09-10T00:02:13.661Z,28.50
2017-09-10T00:03:13.638Z,28.70
2017-09-10T00:04:13.615Z,27.70
2017-09-10T00:05:13.593Z,28.10
2017-09-10T00:06:13.576Z,27.70
2017-09-10T00:07:13.549Z,25.60
2017-09-10T00:08:13.530Z,27.50
2017-09-10T00:09:13.504Z,25.00
2017-09-10T00:10:13.482Z,24.60
2017-09-10T00:11:13.460Z,25.30
2017-09-10T00:12:13.438Z,25.20
2017-09-10T00:13:13.415Z,25.20
2017-09-10T00:14:13.395Z,24.10
2017-09-10T00:15:13.375Z,24.70
2017-09-10T00:16:13.350Z,23.10
2017-09-10T00:17:13.327Z,21.00
2017-09-10T00:18:13.306Z,22.40
2017-09-10T00:19:13.283Z,22.80
2017-09-10T00:20:13.261Z,22.40
2017-09-10T00:21:13.238Z,21.80
2017-09-10T00:22:13.219Z,23.00
2017-09-10T00:23:13.194Z,21.20
2017-09-10T00:24:13.173Z,21.50
2017-09-10T00:25:13.150Z,21.10
2017-09-10T00:26:13.128Z,21.20
2017-09-10T00:27:13.106Z,20.00
2017-09-10T00:28:13.085Z,19.90
2017-09-10T00:29:13.062Z,21.50
2017-09-10T00:30:13.040Z,20.80
2017-09-10T00:31:13.022Z,20.80
2017-09-10T00:32:12.996Z,20.30
2017-09-10T00:33:12.972Z,19.80
2017-09-10T00:34:12.950Z,19.70
2017-09-10T00:35:12.930Z,19.70
2017-09-10T00:36:12.907Z,19.20
2017-09-10T00:37:12.884Z,19.00
2017-09-10T00:38:12.863Z,18.20
2017-09-10T00:39:12.841Z,18.20
2017-09-10T00:40:12.818Z,17.40
2017-09-10T00:41:12.797Z,19.10
2017-09-10T00:42:12.774Z,18.40
2017-09-10T00:43:12.753Z,18.90
2017-09-10T00:44:12.730Z,17.80
2017-09-10T00:45:12.709Z,17.60
2017-09-10T00:46:12.685Z,18.10
2017-09-10T00:47:12.664Z,17.80
2017-09-10T00:48:12.640Z,17.70
2017-09-10T00:49:12.619Z,19.10
2017-09-10T00:50:12.596Z,17.80
2017-09-10T00:51:12.574Z,18.30
2017-09-10T00:52:12.553Z,17.70
2017-09-10T00:53:12.531Z,18.20
2017-09-10T00:54:12.508Z,19.00
2017-09-10T00:55:12.486Z,18.20
2017-09-10T00:56:12.465Z,19.30
2017-09-10T00:57:12.443Z,18.70
2017-09-10T00:58:12.419Z,17.40
2017-09-10T00:59:12.399Z,17.10
2017-09-10T01:00:12.382Z,16.10
2017-09-10T01:01:12.353Z,16.60
2017-09-10T01:02:12.332Z,17.50
2017-09-10T01:03:12.309Z,16.80
2017-09-10T01:04:12.289Z,15.60
2017-09-10T01:05:12.265Z,16.10
2017-09-10T01:06:12.243Z,15.60
2017-09-10T01:07:12.221Z,16.00
2017-09-10T01:08:12.201Z,15.50
2017-09-10T01:09:12.178Z,16.10
2017-09-10T01:10:12.154Z,15.50
2017-09-10T01:11:12.133Z,16.00
2017-09-10T01:12:12.111Z,15.10
2017-09-10T01:13:12.088Z,15.60
2017-09-10T01:14:12.066Z,16.10
2017-09-10T01:15:12.044Z,15.70
2017-09-10T01:16:12.023Z,14.80
2017-09-10T01:17:11.999Z,15.80
2017-09-10T01:18:11.977Z,15.50
2017-09-10T01:19:11.956Z,15.30
2017-09-10T01:20:11.933Z,15.30
2017-09-10T01:21:11.913Z,16.20
2017-09-10T01:22:11.890Z,14.90
2017-09-10T01:23:11.866Z,14.50
2017-09-10T01:24:11.846Z,14.50
2017-09-10T01:25:11.822Z,15.30
2017-09-10T01:26:11.801Z,15.30
2017-09-10T01:27:11.778Z,15.10
2017-09-10T01:28:11.756Z,14.60
2017-09-10T01:29:11.733Z,14.50
2017-09-10T01:30:11.711Z,21.00
2017-09-10T01:31:11.689Z,58.80
2017-09-10T01:32:11.669Z,85.00
2017-09-10T01:33:11.647Z,78.30
2017-09-10T01:34:11.622Z,74.60
2017-09-10T01:35:11.601Z,65.00
2017-09-10T01:36:11.578Z,48.00
2017-09-10T01:37:11.558Z,35.70
2017-09-10T01:38:11.533Z,27.20
2017-09-10T01:39:11.513Z,25.90
2017-09-10T01:40:11.491Z,27.10
2017-09-10T01:41:11.469Z,26.20
2017-09-10T01:42:11.445Z,25.20
2017-09-10T01:43:11.425Z,26.90
2017-09-10T01:44:11.402Z,23.40
2017-09-10T01:45:11.379Z,23.10
2017-09-10T01:46:11.358Z,23.20
2017-09-10T01:47:11.336Z,26.10
2017-09-10T01:48:11.317Z,22.20
2017-09-10T01:49:11.290Z,22.00
2017-09-10T01:50:11.268Z,21.20
2017-09-10T01:51:11.267Z,22.40
2017-09-10T01:52:11.225Z,20.20
2017-09-10T01:53:11.202Z,21.30
2017-09-10T01:54:11.188Z,21.20
2017-09-10T01:55:11.159Z,19.90
2017-09-10T01:56:11.136Z,19.20
2017-09-10T01:57:11.113Z,18.60
2017-09-10T01:58:11.093Z,19.00
2017-09-10T01:59:11.070Z,20.70
2017-09-10T02:00:11.048Z,18.90
2017-09-10T02:01:11.025Z,19.00
2017-09-10T02:02:11.003Z,17.50
2017-09-10T02:03:10.982Z,17.60
2017-09-10T02:04:10.960Z,18.20
2017-09-10T02:05:10.937Z,17.80
2017-09-10T02:06:10.916Z,16.90
2017-09-10T02:07:10.892Z,17.60
2017-09-10T02:08:10.871Z,17.60
2017-09-10T02:09:10.848Z,17.10
2017-09-10T02:10:10.825Z,14.70
2017-09-10T02:11:10.803Z,15.00
2017-09-10T02:12:10.782Z,14.60
2017-09-10T02:13:10.759Z,15.50
2017-09-10T02:14:10.740Z,15.20
2017-09-10T02:15:10.716Z,14.30
2017-09-10T02:16:10.693Z,13.90
2017-09-10T02:17:10.671Z,14.00
2017-09-10T02:18:10.648Z,13.70
2017-09-10T02:19:10.628Z,13.20
2017-09-10T02:20:10.604Z,13.30
2017-09-10T02:21:10.582Z,12.30
2017-09-10T02:22:10.560Z,12.60
2017-09-10T02:23:10.538Z,11.90
2017-09-10T02:24:10.516Z,12.60
2017-09-10T02:25:10.494Z,12.10
2017-09-10T02:26:10.472Z,12.20
2017-09-10T02:27:10.449Z,12.60
2017-09-10T02:28:10.427Z,12.60
2017-09-10T02:29:10.405Z,12.80
2017-09-10T02:30:10.383Z,12.40
2017-09-10T02:31:10.361Z,12.60
2017-09-10T02:32:10.340Z,12.20
2017-09-10T02:33:10.316Z,11.80
2017-09-10T02:34:10.294Z,11.80
2017-09-10T02:35:10.284Z,11.90
2017-09-10T02:36:10.251Z,11.60
2017-09-10T02:37:10.228Z,11.60
2017-09-10T02:38:10.206Z,12.00
2017-09-10T02:39:10.184Z,11.60
2017-09-10T02:40:10.161Z,11.20
2017-09-10T02:41:10.137Z,11.40
2017-09-10T02:42:10.116Z,11.30
2017-09-10T02:43:10.094Z,12.10
2017-09-10T02:44:10.072Z,11.50
2017-09-10T02:45:10.051Z,11.20
2017-09-10T02:46:10.029Z,11.00
2017-09-10T02:47:10.007Z,10.00
2017-09-10T02:48:09.982Z,10.20
2017-09-10T02:49:09.962Z,9.50
2017-09-10T02:50:09.941Z,9.90
2017-09-10T02:51:09.918Z,9.80
2017-09-10T02:52:09.896Z,9.00
2017-09-10T02:53:09.880Z,9.90
2017-09-10T02:54:09.851Z,9.80
2017-09-10T02:55:09.829Z,9.30
2017-09-10T02:56:09.806Z,10.00
2017-09-10T02:57:09.784Z,9.10
2017-09-10T02:58:09.762Z,9.80
2017-09-10T02:59:09.740Z,10.10
2017-09-10T03:00:09.719Z,8.40
2017-09-10T03:01:09.698Z,9.40
2017-09-10T03:02:09.675Z,8.90
2017-09-10T03:03:09.651Z,9.50
2017-09-10T03:04:09.630Z,8.90
2017-09-10T03:05:09.606Z,8.90
2017-09-10T03:06:09.585Z,9.00
2017-09-10T03:07:09.565Z,9.00
2017-09-10T03:08:09.540Z,8.60
2017-09-10T03:09:09.518Z,7.90
2017-09-10T03:10:09.497Z,8.50
2017-09-10T03:11:09.474Z,9.10
2017-09-10T03:12:09.454Z,8.30
2017-09-10T03:13:09.430Z,8.60
2017-09-10T03:14:09.408Z,9.00
2017-09-10T03:15:09.390Z,8.60
2017-09-10T03:16:09.364Z,8.90
2017-09-10T03:17:09.340Z,7.90
2017-09-10T03:18:09.319Z,8.10
2017-09-10T03:19:09.297Z,7.90
2017-09-10T03:20:09.276Z,7.70
2017-09-10T03:21:09.252Z,8.20
2017-09-10T03:22:09.232Z,7.90
2017-09-10T03:23:09.208Z,8.10
2017-09-10T03:24:09.186Z,8.20
2017-09-10T03:25:09.164Z,7.60
2017-09-10T03:26:09.142Z,7.70
2017-09-10T03:27:09.120Z,7.70
2017-09-10T03:28:09.097Z,7.00
2017-09-10T03:29:09.076Z,7.70
2017-09-10T03:30:09.054Z,7.70
2017-09-10T03:31:09.033Z,7.20
2017-09-10T03:32:09.010Z,7.30
2017-09-10T03:33:08.985Z,6.50
2017-09-10T03:34:08.964Z,6.70
2017-09-10T03:35:08.942Z,6.80
2017-09-10T03:36:08.920Z,7.50
2017-09-10T03:37:08.897Z,6.60
2017-09-10T03:38:08.876Z,7.20
2017-09-10T03:39:08.852Z,6.90
2017-09-10T03:40:08.833Z,7.70
2017-09-10T03:41:08.810Z,7.20
2017-09-10T03:42:08.789Z,6.50
2017-09-10T03:43:08.764Z,7.20
2017-09-10T03:44:08.747Z,6.90
2017-09-10T03:45:08.720Z,7.10
2017-09-10T03:46:08.697Z,6.20
2017-09-10T03:47:08.677Z,6.60
2017-09-10T03:48:08.655Z,6.10
2017-09-10T03:49:08.631Z,6.50
2017-09-10T03:50:08.611Z,6.00
2017-09-10T03:51:08.589Z,6.60
2017-09-10T03:52:08.565Z,6.60
2017-09-10T03:53:08.543Z,6.50
2017-09-10T03:54:08.520Z,6.60
2017-09-10T03:55:08.499Z,5.80
2017-09-10T03:56:08.476Z,6.00
2017-09-10T03:57:08.455Z,5.80
2017-09-10T03:58:08.432Z,5.60
2017-09-10T03:59:08.410Z,5.80
2017-09-10T04:00:08.389Z,6.50
2017-09-10T04:01:08.365Z,6.50
2017-09-10T04:02:08.343Z,5.80
2017-09-10T04:03:08.321Z,5.90
2017-09-10T04:04:08.300Z,5.40
2017-09-10T04:05:08.277Z,5.20
2017-09-10T04:06:08.255Z,5.20
2017-09-10T04:07:08.232Z,5.20
2017-09-10T04:08:08.211Z,5.90
2017-09-10T04:09:08.189Z,5.40
2017-09-10T04:10:08.166Z,6.10
2017-09-10T04:11:08.144Z,5.60
2017-09-10T04:12:08.121Z,5.70
2017-09-10T04:13:08.100Z,5.60
2017-09-10T04:14:08.077Z,5.20
2017-09-10T04:15:08.055Z,5.50
2017-09-10T04:16:08.032Z,5.20
2017-09-10T04:17:08.012Z,5.30
2017-09-10T04:18:07.989Z,5.60
2017-09-10T04:19:07.966Z,5.50
2017-09-10T04:20:07.944Z,5.00
2017-09-10T04:21:07.922Z,5.30
2017-09-10T04:22:07.900Z,5.20
2017-09-10T04:23:07.878Z,5.60
2017-09-10T04:24:07.856Z,4.80
2017-09-10T04:25:07.832Z,5.20
2017-09-10T04:26:07.816Z,5.40
2017-09-10T04:27:07.789Z,5.30
2017-09-10T04:28:07.767Z,5.50
2017-09-10T04:29:07.743Z,5.30
2017-09-10T04:30:07.723Z,5.10
2017-09-10T04:31:07.700Z,5.10
2017-09-10T04:32:07.681Z,4.80
2017-09-10T04:33:07.656Z,5.30
2017-09-10T04:34:07.634Z,5.30
2017-09-10T04:35:07.611Z,5.10
2017-09-10T04:36:07.589Z,5.00
2017-09-10T04:37:07.566Z,4.60
2017-09-10T04:38:07.545Z,5.40
2017-09-10T04:39:07.547Z,5.30
2017-09-10T04:40:07.501Z,5.40
2017-09-10T04:41:07.478Z,4.90
2017-09-10T04:42:07.457Z,5.40
2017-09-10T04:43:07.434Z,5.00
2017-09-10T04:44:07.412Z,4.80
2017-09-10T04:45:07.390Z,4.50
2017-09-10T04:46:07.368Z,5.20
2017-09-10T04:47:07.346Z,4.90
2017-09-10T04:48:07.324Z,4.70
2017-09-10T04:49:07.301Z,5.20
2017-09-10T04:50:07.280Z,4.80
2017-09-10T04:51:07.257Z,4.40
2017-09-10T04:52:07.235Z,4.60
2017-09-10T04:53:07.212Z,5.00
2017-09-10T04:54:07.191Z,5.00
2017-09-10T04:55:07.168Z,5.00
2017-09-10T04:56:07.148Z,5.00
2017-09-10T04:57:07.123Z,5.00
2017-09-10T04:58:07.103Z,4.90
2017-09-10T04:59:07.079Z,4.70
2017-09-10T05:00:07.057Z,4.70
2017-09-10T05:01:07.035Z,5.00
2017-09-10T05:02:07.013Z,4.60
2017-09-10T05:03:06.991Z,4.50
2017-09-10T05:04:06.968Z,4.90
2017-09-10T05:05:06.946Z,4.20
2017-09-10T05:06:06.925Z,4.30
2017-09-10T05:07:06.902Z,4.80
2017-09-10T05:08:06.880Z,4.80
2017-09-10T05:09:06.858Z,4.50
2017-09-10T05:10:06.837Z,4.70
2017-09-10T05:11:06.813Z,4.80
2017-09-10T05:12:06.791Z,4.40
2017-09-10T05:13:06.769Z,4.70
2017-09-10T05:14:06.745Z,4.40
2017-09-10T05:15:06.724Z,4.90
2017-09-10T05:16:06.703Z,4.60
2017-09-10T05:17:06.680Z,4.60
2017-09-10T05:18:06.658Z,4.70
2017-09-10T05:19:06.636Z,4.50
2017-09-10T05:20:06.613Z,4.80
2017-09-10T05:21:06.591Z,4.80
2017-09-10T05:22:06.572Z,4.70
2017-09-10T05:23:06.548Z,4.30
2017-09-10T05:24:06.526Z,4.40
2017-09-10T05:25:06.504Z,4.20
2017-09-10T05:26:06.480Z,5.30
2017-09-10T05:27:06.460Z,4.80
2017-09-10T05:28:06.436Z,4.30
2017-09-10T05:29:06.414Z,4.30
2017-09-10T05:30:06.391Z,4.40
2017-09-10T05:31:06.369Z,4.00
2017-09-10T05:32:06.348Z,4.60
2017-09-10T05:33:06.326Z,4.40
2017-09-10T05:34:06.303Z,4.40
2017-09-10T05:35:06.286Z,4.50
2017-09-10T05:36:06.258Z,4.30
2017-09-10T05:37:06.236Z,4.20
2017-09-10T05:38:06.216Z,4.60
2017-09-10T05:39:06.193Z,4.50
2017-09-10T05:40:06.172Z,3.90
2017-09-10T05:41:06.147Z,4.00
2017-09-10T05:42:06.126Z,4.40
2017-09-10T05:43:06.106Z,4.20
2017-09-10T05:44:06.081Z,4.40
2017-09-10T05:45:06.058Z,3.90
2017-09-10T05:46:06.038Z,4.30
2017-09-10T05:47:06.019Z,4.40
2017-09-10T05:48:05.994Z,4.30
2017-09-10T05:49:05.976Z,3.90
2017-09-10T05:50:05.950Z,4.10
2017-09-10T05:51:05.926Z,3.70
2017-09-10T05:52:05.906Z,4.30
2017-09-10T05:53:05.881Z,4.20
2017-09-10T05:54:05.860Z,4.00
2017-09-10T05:55:05.838Z,4.20
2017-09-10T05:56:05.816Z,3.70
2017-09-10T05:57:05.793Z,3.80
2017-09-10T05:58:05.770Z,3.90
2017-09-10T05:59:05.750Z,4.00
2017-09-10T06:00:05.727Z,4.20
2017-09-10T06:01:05.704Z,4.10
2017-09-10T06:02:05.682Z,4.20
2017-09-10T06:03:05.661Z,4.10
2017-09-10T06:04:05.641Z,4.00
2017-09-10T06:05:05.617Z,4.10
2017-09-10T06:06:05.593Z,3.80
2017-09-10T06:07:05.571Z,4.30
2017-09-10T06:08:05.551Z,4.10
2017-09-10T06:09:05.526Z,3.90
2017-09-10T06:10:05.504Z,4.40
2017-09-10T06:11:05.481Z,3.80
2017-09-10T06:12:05.464Z,3.70
2017-09-10T06:13:05.437Z,4.10
2017-09-10T06:14:05.416Z,3.60
2017-09-10T06:15:05.394Z,3.90
2017-09-10T06:16:05.372Z,4.30
2017-09-10T06:17:05.349Z,3.70
2017-09-10T06:18:05.332Z,3.80
2017-09-10T06:19:05.305Z,4.00
2017-09-10T06:20:05.285Z,3.90
2017-09-10T06:21:05.260Z,4.10
2017-09-10T06:22:05.240Z,4.10
2017-09-10T06:23:05.217Z,3.70
2017-09-10T06:24:05.195Z,4.00
2017-09-10T06:25:05.172Z,4.20
2017-09-10T06:26:05.150Z,4.20
2017-09-10T06:27:05.128Z,4.10
2017-09-10T06:28:05.106Z,3.70
2017-09-10T06:29:05.082Z,3.80
2017-09-10T06:30:05.061Z,4.00
2017-09-10T06:31:05.039Z,3.80
2017-09-10T06:32:05.018Z,4.10
2017-09-10T06:33:04.996Z,3.80
2017-09-10T06:34:04.972Z,4.10
2017-09-10T06:35:04.951Z,4.10
2017-09-10T06:36:04.928Z,4.00
2017-09-10T06:37:04.905Z,3.70
2017-09-10T06:38:04.883Z,3.50
2017-09-10T06:39:04.861Z,4.30
2017-09-10T06:40:04.840Z,4.00
2017-09-10T06:41:04.818Z,3.60
2017-09-10T06:42:04.798Z,3.40
2017-09-10T06:43:04.775Z,3.90
2017-09-10T06:44:04.751Z,3.30
2017-09-10T06:45:04.728Z,3.80
2017-09-10T06:46:04.707Z,3.60
2017-09-10T06:47:04.711Z,3.50
2017-09-10T06:48:04.662Z,3.50
2017-09-10T06:49:04.639Z,3.40
2017-09-10T06:50:04.618Z,3.60
2017-09-10T06:51:04.597Z,3.10
2017-09-10T06:52:04.575Z,3.50
2017-09-10T06:53:04.550Z,3.50
2017-09-10T06:54:04.528Z,3.50
2017-09-10T06:55:04.506Z,3.70
2017-09-10T06:56:04.486Z,3.40
2017-09-10T06:57:04.462Z,3.20
2017-09-10T06:58:04.441Z,3.30
2017-09-10T06:59:04.418Z,3.40
2017-09-10T07:00:04.397Z,3.30
2017-09-10T07:01:04.373Z,3.50
2017-09-10T07:02:04.353Z,3.60
2017-09-10T07:03:04.330Z,3.10
2017-09-10T07:04:04.309Z,4.00
2017-09-10T07:05:04.287Z,3.60
2017-09-10T07:06:04.262Z,3.50
2017-09-10T07:07:04.241Z,3.60
2017-09-10T07:08:04.220Z,3.90
2017-09-10T07:09:04.196Z,3.80
2017-09-10T07:10:04.175Z,3.20
2017-09-10T07:11:04.153Z,3.60
2017-09-10T07:12:04.130Z,3.20
2017-09-10T07:13:04.107Z,3.60
2017-09-10T07:14:04.085Z,3.20
2017-09-10T07:15:04.063Z,3.40
2017-09-10T07:16:04.041Z,3.30
2017-09-10T07:17:04.018Z,3.40
2017-09-10T07:18:03.997Z,3.60
2017-09-10T07:19:03.975Z,4.00
2017-09-10T07:20:03.956Z,3.70
2017-09-10T07:21:03.936Z,3.50
2017-09-10T07:22:03.911Z,3.30
2017-09-10T07:23:03.887Z,4.00
2017-09-10T07:24:03.868Z,3.50
2017-09-10T07:25:03.841Z,3.80
2017-09-10T07:26:03.820Z,3.90
2017-09-10T07:27:03.798Z,4.00
2017-09-10T07:28:03.776Z,4.40
2017-09-10T07:29:03.759Z,3.80
2017-09-10T07:30:03.732Z,3.60
2017-09-10T07:31:03.713Z,3.60
2017-09-10T07:32:03.689Z,5.00
2017-09-10T07:33:03.667Z,5.00
2017-09-10T07:34:03.642Z,4.30
2017-09-10T07:35:03.621Z,4.50
2017-09-10T07:36:03.598Z,4.90
2017-09-10T07:37:03.575Z,5.20
2017-09-10T07:38:03.555Z,4.50
2017-09-10T07:39:03.532Z,4.70
2017-09-10T07:40:03.511Z,5.90
2017-09-10T07:41:03.488Z,6.70
2017-09-10T07:42:03.500Z,6.00
2017-09-10T07:43:03.444Z,6.70
2017-09-10T07:44:03.423Z,6.50
2017-09-10T07:45:03.400Z,7.00
2017-09-10T07:46:03.379Z,8.50
2017-09-10T07:47:03.356Z,6.50
2017-09-10T07:48:03.336Z,7.90
2017-09-10T07:49:03.311Z,10.80
2017-09-10T07:50:03.288Z,14.80
2017-09-10T07:51:03.271Z,12.90
2017-09-10T07:52:03.245Z,17.50
2017-09-10T07:53:03.226Z,17.00
2017-09-10T07:54:03.203Z,19.00
2017-09-10T07:55:03.179Z,20.80
2017-09-10T07:56:03.158Z,23.90
2017-09-10T07:57:03.135Z,30.40
2017-09-10T07:58:03.112Z,34.60
2017-09-10T07:59:03.090Z,32.50
2017-09-10T08:00:03.070Z,40.50
2017-09-10T08:01:03.049Z,47.40
2017-09-10T08:02:03.026Z,57.70
2017-09-10T08:03:03.002Z,64.10
2017-09-10T08:04:02.980Z,70.10
2017-09-10T08:05:02.960Z,81.40
2017-09-10T08:06:02.938Z,86.60
2017-09-10T08:07:02.914Z,85.60
2017-09-10T08:08:02.894Z,92.10
2017-09-10T08:09:02.870Z,95.00
2017-09-10T08:10:02.849Z,98.60
2017-09-10T08:11:02.827Z,102.30
2017-09-10T08:12:02.804Z,105.30
2017-09-10T08:13:02.782Z,105.60
2017-09-10T08:14:02.760Z,106.90
2017-09-10T08:15:02.740Z,100.50
2017-09-10T08:16:02.718Z,107.30
2017-09-10T08:17:02.696Z,103.40
2017-09-10T08:18:02.673Z,103.90
2017-09-10T08:19:02.654Z,102.20
2017-09-10T08:20:02.629Z,102.20
2017-09-10T08:21:02.607Z,103.20
2017-09-10T08:22:02.584Z,101.70
2017-09-10T08:23:02.563Z,103.40
2017-09-10T08:24:02.542Z,103.50
2017-09-10T08:25:02.518Z,103.30
2017-09-10T08:26:02.498Z,103.80
2017-09-10T08:27:02.475Z,101.10
2017-09-10T08:28:02.453Z,104.10
2017-09-10T08:29:02.430Z,98.70
2017-09-10T08:30:02.409Z,101.00
2017-09-10T08:31:02.389Z,99.50
2017-09-10T08:32:02.365Z,100.10
2017-09-10T08:33:02.344Z,102.40
2017-09-10T08:34:02.321Z,99.50
2017-09-10T08:35:02.300Z,99.10
2017-09-10T08:36:02.277Z,96.90
2017-09-10T08:37:02.255Z,93.90
2017-09-10T08:38:02.234Z,98.40
2017-09-10T08:39:02.212Z,94.80
2017-09-10T08:40:02.189Z,98.90
2017-09-10T08:41:02.167Z,96.70
2017-09-10T08:42:02.147Z,96.60
2017-09-10T08:43:02.126Z,94.40
2017-09-10T08:44:02.102Z,98.60
2017-09-10T08:45:02.082Z,95.00
2017-09-10T08:46:02.061Z,96.30
2017-09-10T08:47:02.038Z,95.00
2017-09-10T08:48:02.014Z,92.40
2017-09-10T08:49:01.991Z,93.40
2017-09-10T08:50:01.971Z,93.80
2017-09-10T08:51:01.951Z,92.80
2017-09-10T08:52:01.927Z,92.20
2017-09-10T08:53:01.904Z,88.00
2017-09-10T08:54:01.882Z,91.10
2017-09-10T08:55:01.861Z,90.20
2017-09-10T08:56:01.841Z,85.80
2017-09-10T08:57:01.816Z,90.50
2017-09-10T08:58:01.794Z,85.60
2017-09-10T08:59:01.773Z,84.50
2017-09-10T09:00:01.751Z,88.90
2017-09-10T09:01:01.728Z,88.20
2017-09-10T09:02:01.706Z,86.30
2017-09-10T09:03:01.687Z,85.90
2017-09-10T09:04:01.664Z,85.70
2017-09-10T09:05:01.641Z,84.60
2017-09-10T09:06:01.620Z,84.60
2017-09-10T09:07:01.599Z,86.10
2017-09-10T09:08:01.575Z,85.20
2017-09-10T09:09:01.552Z,84.20
2017-09-10T09:10:01.531Z,80.60
2017-09-10T09:11:01.511Z,85.20
2017-09-10T09:12:01.490Z,83.50
2017-09-10T09:13:01.465Z,84.60
2017-09-10T09:14:01.445Z,81.00
2017-09-10T09:15:01.423Z,79.80
2017-09-10T09:16:01.400Z,82.50
2017-09-10T09:17:01.377Z,82.70
2017-09-10T09:18:01.355Z,80.30
2017-09-10T09:19:01.335Z,80.20
2017-09-10T09:20:01.313Z,78.60
2017-09-10T09:21:01.291Z,80.80
2017-09-10T09:22:01.268Z,77.50
2017-09-10T09:23:01.246Z,77.20
2017-09-10T09:24:01.224Z,79.10
2017-09-10T09:25:01.205Z,78.50
2017-09-10T09:26:01.180Z,79.00
2017-09-10T09:27:01.160Z,78.70
2017-09-10T09:28:01.137Z,81.20
2017-09-10T09:29:01.116Z,76.10
2017-09-10T09:30:01.093Z,75.70
2017-09-10T09:31:01.073Z,75.90
2017-09-10T09:32:01.049Z,75.60
2017-09-10T09:33:01.027Z,78.10
2017-09-10T09:34:01.004Z,77.70
2017-09-10T09:35:00.984Z,74.90
2017-09-10T09:36:00.961Z,72.30
2017-09-10T09:37:00.939Z,75.40
2017-09-10T09:38:00.918Z,74.50
2017-09-10T09:39:00.897Z,75.50
2017-09-10T09:40:00.874Z,73.90
2017-09-10T09:41:00.852Z,76.90
2017-09-10T09:42:00.834Z,75.30
2017-09-10T09:43:00.808Z,73.60
2017-09-10T09:44:00.787Z,74.50
2017-09-10T09:45:00.767Z,72.10
2017-09-10T09:46:00.742Z,68.80
2017-09-10T09:47:00.721Z,73.00
2017-09-10T09:48:00.700Z,74.20
2017-09-10T09:49:00.678Z,70.10
2017-09-10T09:50:00.654Z,69.10
2017-09-10T09:51:00.634Z,70.10
2017-09-10T09:52:00.612Z,72.80
2017-09-10T09:53:00.589Z,68.80
2017-09-10T09:54:00.567Z,70.40
2017-09-10T09:55:00.546Z,68.80
2017-09-10T09:56:00.723Z,68.30
2017-09-10T09:57:00.501Z,67.90
2017-09-10T09:58:00.480Z,67.30
2017-09-10T09:59:00.458Z,70.50
2017-09-10T10:00:00.437Z,67.80
2017-09-10T10:01:00.416Z,65.40
2017-09-10T10:02:00.393Z,67.10
2017-09-10T10:03:00.371Z,68.80
2017-09-10T10:04:00.350Z,65.00
2017-09-10T10:05:00.328Z,64.20
2017-09-10T10:06:00.305Z,65.50
2017-09-10T10:07:00.285Z,61.50
2017-09-10T10:08:00.264Z,58.30
2017-09-10T10:09:00.240Z,54.40
2017-09-10T10:10:00.221Z,56.20
2017-09-10T10:11:00.198Z,54.70
2017-09-10T10:12:00.177Z,53.40
2017-09-10T10:13:00.155Z,55.80
2017-09-10T10:14:00.132Z,54.20
2017-09-10T10:15:00.109Z,53.90
2017-09-10T10:16:00.089Z,56.20
2017-09-10T10:17:00.067Z,55.00
2017-09-10T10:18:00.047Z,54.70
2017-09-10T10:19:00.025Z,56.10
2017-09-10T10:20:00.003Z,53.30
2017-09-10T10:20:59.979Z,51.10
2017-09-10T10:21:59.959Z,51.40
2017-09-10T10:22:59.937Z,50.20
2017-09-10T10:23:59.916Z,51.50
2017-09-10T10:24:59.894Z,50.90
2017-09-10T10:25:59.872Z,51.90
2017-09-10T10:26:59.851Z,51.10
2017-09-10T10:27:59.830Z,51.10
2017-09-10T10:28:59.807Z,49.90
2017-09-10T10:29:59.785Z,49.40
2017-09-10T10:30:59.764Z,48.30
2017-09-10T10:31:59.745Z,47.80
2017-09-10T10:32:59.722Z,49.10
2017-09-10T10:33:59.699Z,48.60
2017-09-10T10:34:59.678Z,47.70
2017-09-10T10:35:59.656Z,47.40
2017-09-10T10:36:59.636Z,47.30
2017-09-10T10:37:59.613Z,46.90
2017-09-10T10:38:59.597Z,47.60
2017-09-10T10:39:59.569Z,44.60
2017-09-10T10:40:59.550Z,43.50
2017-09-10T10:41:59.526Z,47.80
2017-09-10T10:42:59.505Z,45.50
2017-09-10T10:43:59.484Z,44.60
2017-09-10T10:44:59.461Z,46.30
2017-09-10T10:45:59.438Z,44.70
2017-09-10T10:46:59.418Z,42.80
2017-09-10T10:47:59.619Z,44.20
2017-09-10T10:48:59.595Z,44.40
2017-09-10T10:49:59.355Z,46.00
2017-09-10T10:50:59.332Z,42.90
2017-09-10T10:51:59.311Z,44.70
2017-09-10T10:52:59.294Z,43.10
2017-09-10T10:53:59.267Z,41.90
2017-09-10T10:54:59.248Z,42.50
2017-09-10T10:55:59.224Z,41.30
2017-09-10T10:56:59.206Z,42.20
2017-09-10T10:57:59.182Z,41.00
2017-09-10T10:58:59.159Z,40.50
2017-09-10T10:59:59.142Z,40.60
2017-09-10T11:00:59.116Z,40.40
2017-09-10T11:01:59.097Z,39.80
2017-09-10T11:02:59.073Z,40.70
2017-09-10T11:03:59.052Z,40.70
2017-09-10T11:04:59.029Z,42.10
2017-09-10T11:05:59.010Z,39.50
2017-09-10T11:06:58.988Z,37.70
2017-09-10T11:07:58.967Z,37.60
2017-09-10T11:08:58.943Z,37.50
2017-09-10T11:09:58.922Z,38.50
2017-09-10T11:10:58.901Z,38.10
2017-09-10T11:11:58.881Z,39.20
2017-09-10T11:12:58.858Z,39.20
2017-09-10T11:13:58.837Z,38.00
2017-09-10T11:14:58.815Z,36.50
2017-09-10T11:15:58.794Z,38.80
2017-09-10T11:16:58.772Z,37.30
2017-09-10T11:17:58.750Z,37.40
2017-09-10T11:18:58.730Z,37.50
2017-09-10T11:19:58.710Z,38.00
2017-09-10T11:20:58.686Z,37.90
2017-09-10T11:21:58.663Z,38.90
2017-09-10T11:22:58.642Z,38.00
2017-09-10T11:23:58.626Z,36.40
2017-09-10T11:24:58.599Z,35.70
2017-09-10T11:25:58.579Z,34.90
2017-09-10T11:26:58.557Z,35.70
2017-09-10T11:27:58.535Z,36.30
2017-09-10T11:28:58.513Z,35.90
2017-09-10T11:29:58.497Z,36.40
2017-09-10T11:30:58.471Z,35.90
2017-09-10T11:31:58.449Z,34.50
2017-09-10T11:32:58.426Z,33.20
2017-09-10T11:33:58.410Z,35.30
2017-09-10T11:34:58.384Z,34.00
2017-09-10T11:35:58.364Z,33.60
2017-09-10T11:36:58.340Z,33.50
2017-09-10T11:37:58.319Z,34.20
2017-09-10T11:38:58.298Z,33.80
2017-09-10T11:39:58.276Z,33.60
2017-09-10T11:40:58.254Z,32.50
2017-09-10T11:41:58.233Z,33.80
2017-09-10T11:42:58.211Z,33.20
2017-09-10T11:43:58.190Z,32.70
2017-09-10T11:44:58.176Z,33.40
2017-09-10T11:45:58.147Z,32.70
2017-09-10T11:46:58.125Z,32.40
2017-09-10T11:47:58.106Z,29.70
2017-09-10T11:48:58.082Z,32.00
2017-09-10T11:49:58.061Z,34.30
2017-09-10T11:50:58.041Z,37.40
2017-09-10T11:51:58.018Z,34.80
2017-09-10T11:52:58.001Z,34.70
2017-09-10T11:53:57.975Z,32.00
2017-09-10T11:54:57.953Z,30.90
2017-09-10T11:55:57.933Z,31.30
2017-09-10T11:56:57.909Z,27.50
2017-09-10T11:57:57.890Z,26.40
2017-09-10T11:58:57.903Z,29.90
2017-09-10T11:59:57.844Z,27.20
2017-09-10T12:00:57.822Z,27.80
2017-09-10T12:01:57.802Z,28.30
2017-09-10T12:02:57.780Z,28.60
2017-09-10T12:03:57.759Z,27.80
2017-09-10T12:04:57.737Z,28.10
2017-09-10T12:05:57.715Z,27.30
2017-09-10T12:06:57.695Z,26.50
2017-09-10T12:07:57.672Z,25.10
2017-09-10T12:08:57.651Z,25.90
2017-09-10T12:09:57.661Z,26.10
2017-09-10T12:10:57.608Z,26.60
2017-09-10T12:11:57.586Z,26.50
2017-09-10T12:12:57.565Z,26.40
2017-09-10T12:13:57.547Z,25.10
2017-09-10T12:14:57.521Z,26.30
2017-09-10T12:15:57.500Z,25.60
2017-09-10T12:16:57.478Z,23.90
2017-09-10T12:17:57.456Z,24.50
2017-09-10T12:18:57.437Z,26.00
2017-09-10T12:19:57.413Z,24.90
2017-09-10T12:20:57.391Z,23.60
2017-09-10T12:21:57.370Z,23.60
2017-09-10T12:22:57.348Z,22.80
2017-09-10T12:23:57.327Z,18.80
2017-09-10T12:24:57.305Z,18.00
2017-09-10T12:25:57.284Z,19.40
2017-09-10T12:26:57.263Z,19.10
2017-09-10T12:27:57.242Z,19.90
2017-09-10T12:28:57.218Z,19.80
2017-09-10T12:29:57.196Z,20.60
2017-09-10T12:30:57.175Z,19.30
2017-09-10T12:31:57.154Z,20.40
2017-09-10T12:32:57.134Z,21.30
2017-09-10T12:33:57.111Z,19.50
2017-09-10T12:34:57.089Z,19.60
2017-09-10T12:35:57.068Z,21.40
2017-09-10T12:36:57.045Z,21.10
2017-09-10T12:37:57.025Z,18.70
2017-09-10T12:38:57.003Z,19.50
2017-09-10T12:39:56.982Z,18.40
2017-09-10T12:40:56.959Z,18.70
2017-09-10T12:41:56.939Z,18.50
2017-09-10T12:42:56.917Z,17.80
2017-09-10T12:43:56.895Z,17.50
2017-09-10T12:44:56.872Z,16.30
2017-09-10T12:45:56.853Z,17.20
2017-09-10T12:46:56.831Z,15.70
2017-09-10T12:47:56.809Z,15.60
2017-09-10T12:48:56.790Z,16.10
2017-09-10T12:49:56.765Z,17.30
2017-09-10T12:50:56.744Z,16.50
2017-09-10T12:51:56.725Z,16.40
2017-09-10T12:52:56.700Z,17.00
2017-09-10T12:53:56.679Z,16.10
2017-09-10T12:54:56.657Z,16.40
2017-09-10T12:55:56.638Z,16.50
2017-09-10T12:56:56.613Z,15.90
2017-09-10T12:57:56.593Z,16.10
2017-09-10T12:58:56.572Z,16.60
2017-09-10T12:59:56.550Z,15.60
2017-09-10T13:00:56.528Z,16.50